Terminal Aerodrome Forecast
Issued by NWS

Home | Current Version | Previous Version | Text Only | Print | Product List | Glossary On
Versions: 1 2 3 4 5 6 7 8 9 10 11 12 13 14 15 16
300
FTUS46 KMFR 261355 AAA
TAFLMT
TAF AMD
KLMT 261355Z 2614/2712 18010KT 6SM -RA BKN025 OVC035
     FM261700 25015G25KT 6SM -RA SCT007 OVC020
     FM262000 29020G30KT P6SM -SHRA SCT015 BKN040
     FM270600 29010KT P6SM BKN050=

USA.gov is the U.S. government's official web portal to all federal, state and local government web resources and services.